sensor_id;sensor_type;location;lat;lon;timestamp;pressure;altitude;pressure_sealevel;temperature;humidity
77452;BME280;66537;52.370;4.832;2023-11-21T00:01:51;101172.38;;;9.64;100.00
77452;BME280;66537;52.370;4.832;2023-11-21T00:04:17;101170.50;;;9.72;100.00
77452;BME280;66537;52.370;4.832;2023-11-21T00:06:42;101178.19;;;9.77;100.00
77452;BME280;66537;52.370;4.832;2023-11-21T00:09:07;101180.75;;;9.77;100.00
77452;BME280;66537;52.370;4.832;2023-11-21T00:11:33;101181.50;;;9.82;100.00
77452;BME280;66537;52.370;4.832;2023-11-21T00:13:59;101178.84;;;9.86;100.00
77452;BME280;66537;52.370;4.832;2023-11-21T00:16:24;101181.38;;;9.88;100.00
77452;BME280;66537;52.370;4.832;2023-11-21T00:18:50;101181.31;;;9.92;100.00
77452;BME280;66537;52.370;4.832;2023-11-21T00:21:16;101187.28;;;9.94;100.00
77452;BME280;66537;52.370;4.832;2023-11-21T00:23:41;101185.53;;;9.96;100.00
77452;BME280;66537;52.370;4.832;2023-11-21T00:26:07;101194.16;;;9.95;100.00
77452;BME280;66537;52.370;4.832;2023-11-21T00:28:32;101191.56;;;9.95;100.00
77452;BME280;66537;52.370;4.832;2023-11-21T00:30:57;101193.38;;;9.92;100.00
77452;BME280;66537;52.370;4.832;2023-11-21T00:33:23;101194.03;;;10.01;100.00
77452;BME280;66537;52.370;4.832;2023-11-21T00:35:48;101196.53;;;10.04;100.00
77452;BME280;66537;52.370;4.832;2023-11-21T00:38:13;101197.34;;;10.08;100.00
77452;BME280;66537;52.370;4.832;2023-11-21T00:40:39;101199.94;;;10.08;100.00
77452;BME280;66537;52.370;4.832;2023-11-21T00:43:04;101203.34;;;10.09;100.00
77452;BME280;66537;52.370;4.832;2023-11-21T00:45:30;101196.44;;;10.12;100.00
77452;BME280;66537;52.370;4.832;2023-11-21T00:47:55;101210.19;;;10.14;100.00
77452;BME280;66537;52.370;4.832;2023-11-21T00:50:21;101194.69;;;10.13;100.00
77452;BME280;66537;52.370;4.832;2023-11-21T00:52:47;101197.25;;;10.14;100.00
77452;BME280;66537;52.370;4.832;2023-11-21T00:55:12;101197.19;;;10.17;100.00
77452;BME280;66537;52.370;4.832;2023-11-21T00:57:37;101200.66;;;10.15;100.00
77452;BME280;66537;52.370;4.832;2023-11-21T01:00:03;101200.63;;;10.18;100.00
77452;BME280;66537;52.370;4.832;2023-11-21T01:02:33;101213.53;;;10.18;100.00
77452;BME280;66537;52.370;4.832;2023-11-21T01:05:00;101214.38;;;10.20;100.00
77452;BME280;66537;52.370;4.832;2023-11-21T01:07:25;101218.75;;;10.15;100.00
77452;BME280;66537;52.370;4.832;2023-11-21T01:09:52;101220.59;;;10.08;100.00
77452;BME280;66537;52.370;4.832;2023-11-21T01:12:17;101214.53;;;10.09;100.00
77452;BME280;66537;52.370;4.832;2023-11-21T01:14:42;101224.84;;;10.14;100.00
77452;BME280;66537;52.370;4.832;2023-11-21T01:17:08;101227.25;;;10.21;100.00
77452;BME280;66537;52.370;4.832;2023-11-21T01:19:33;101238.47;;;10.22;100.00
77452;BME280;66537;52.370;4.832;2023-11-21T01:21:58;101234.28;;;10.16;100.00
77452;BME280;66537;52.370;4.832;2023-11-21T01:24:24;101237.84;;;10.08;100.00
77452;BME280;66537;52.370;4.832;2023-11-21T01:26:50;101245.47;;;10.15;100.00
77452;BME280;66537;52.370;4.832;2023-11-21T01:29:15;101246.41;;;10.11;100.00
77452;BME280;66537;52.370;4.832;2023-11-21T01:31:40;101253.41;;;10.04;100.00
77452;BME280;66537;52.370;4.832;2023-11-21T01:34:06;101250.72;;;10.09;100.00
77452;BME280;66537;52.370;4.832;2023-11-21T01:36:32;101255.09;;;10.07;100.00
77452;BME280;66537;52.370;4.832;2023-11-21T01:38:57;101257.66;;;10.07;100.00
77452;BME280;66537;52.370;4.832;2023-11-21T01:41:25;101259.22;;;10.17;100.00
77452;BME280;66537;52.370;4.832;2023-11-21T01:43:52;101260.81;;;10.23;100.00
77452;BME280;66537;52.370;4.832;2023-11-21T01:46:19;101257.31;;;10.27;100.00
77452;BME280;66537;52.370;4.832;2023-11-21T01:48:45;101260.91;;;10.20;100.00
77452;BME280;66537;52.370;4.832;2023-11-21T01:51:11;101259.19;;;10.19;100.00
77452;BME280;66537;52.370;4.832;2023-11-21T01:53:36;101270.38;;;10.19;100.00
77452;BME280;66537;52.370;4.832;2023-11-21T01:56:02;101270.34;;;10.21;100.00
77452;BME280;66537;52.370;4.832;2023-11-21T01:58:27;101273.84;;;10.18;100.00
77452;BME280;66537;52.370;4.832;2023-11-21T02:00:52;101272.00;;;10.25;100.00
77452;BME280;66537;52.370;4.832;2023-11-21T02:03:20;101276.31;;;10.24;100.00
77452;BME280;66537;52.370;4.832;2023-11-21T02:05:45;101268.81;;;10.12;100.00
77452;BME280;66537;52.370;4.832;2023-11-21T02:08:11;101270.47;;;10.15;100.00
77452;BME280;66537;52.370;4.832;2023-11-21T02:10:36;101269.50;;;10.20;100.00
77452;BME280;66537;52.370;4.832;2023-11-21T02:13:03;101271.22;;;10.21;100.00
77452;BME280;66537;52.370;4.832;2023-11-21T02:15:29;101270.34;;;10.21;100.00
77452;BME280;66537;52.370;4.832;2023-11-21T02:17:54;101277.28;;;10.19;100.00
77452;BME280;66537;52.370;4.832;2023-11-21T02:20:21;101275.59;;;10.18;100.00
77452;BME280;66537;52.370;4.832;2023-11-21T02:22:56;101276.47;;;10.17;100.00
77452;BME280;66537;52.370;4.832;2023-11-21T02:25:26;101287.63;;;10.19;100.00
77452;BME280;66537;52.370;4.832;2023-11-21T02:27:53;101285.88;;;10.21;100.00
77452;BME280;66537;52.370;4.832;2023-11-21T02:30:20;101287.66;;;10.17;100.00
77452;BME280;66537;52.370;4.832;2023-11-21T02:32:47;101285.91;;;10.19;100.00
77452;BME280;66537;52.370;4.832;2023-11-21T02:35:13;101291.03;;;10.21;100.00
77452;BME280;66537;52.370;4.832;2023-11-21T02:37:39;101291.06;;;10.19;100.00
77452;BME280;66537;52.370;4.832;2023-11-21T02:40:06;101294.41;;;10.24;100.00
77452;BME280;66537;52.370;4.832;2023-11-21T02:42:33;101289.16;;;10.29;100.00
77452;BME280;66537;52.370;4.832;2023-11-21T02:44:59;101293.53;;;10.25;100.00
77452;BME280;66537;52.370;4.832;2023-11-21T02:47:24;101286.59;;;10.27;100.00
77452;BME280;66537;52.370;4.832;2023-11-21T02:49:50;101295.22;;;10.26;100.00
77452;BME280;66537;52.370;4.832;2023-11-21T02:52:17;101293.50;;;10.27;100.00
77452;BME280;66537;52.370;4.832;2023-11-21T02:54:42;101296.09;;;10.27;100.00
77452;BME280;66537;52.370;4.832;2023-11-21T02:57:08;101301.22;;;10.30;100.00
77452;BME280;66537;52.370;4.832;2023-11-21T02:59:33;101293.34;;;10.34;100.00
77452;BME280;66537;52.370;4.832;2023-11-21T03:01:59;101300.97;;;10.40;100.00
77452;BME280;66537;52.370;4.832;2023-11-21T03:04:24;101301.84;;;10.41;100.00
77452;BME280;66537;52.370;4.832;2023-11-21T03:06:49;101298.41;;;10.40;100.00
77452;BME280;66537;52.370;4.832;2023-11-21T03:09:15;101297.72;;;10.31;100.00
77452;BME280;66537;52.370;4.832;2023-11-21T03:11:41;101303.06;;;10.23;100.00
77452;BME280;66537;52.370;4.832;2023-11-21T03:14:07;101315.06;;;10.27;100.00
77452;BME280;66537;52.370;4.832;2023-11-21T03:16:32;101309.03;;;10.27;100.00
77452;BME280;66537;52.370;4.832;2023-11-21T03:18:58;101313.13;;;10.37;100.00
77452;BME280;66537;52.370;4.832;2023-11-21T03:21:24;101313.84;;;10.43;100.00
77452;BME280;66537;52.370;4.832;2023-11-21T03:23:50;101326.84;;;10.40;100.00
77452;BME280;66537;52.370;4.832;2023-11-21T03:26:15;101320.69;;;10.46;100.00
77452;BME280;66537;52.370;4.832;2023-11-21T03:28:41;101329.28;;;10.48;100.00
77452;BME280;66537;52.370;4.832;2023-11-21T03:31:07;101325.03;;;10.44;100.00
77452;BME280;66537;52.370;4.832;2023-11-21T03:33:34;101326.81;;;10.42;100.00
77452;BME280;66537;52.370;4.832;2023-11-21T03:36:00;101329.00;;;10.19;100.00
77452;BME280;66537;52.370;4.832;2023-11-21T03:38:25;101339.19;;;10.26;100.00
77452;BME280;66537;52.370;4.832;2023-11-21T03:40:51;101340.03;;;10.27;100.00
77452;BME280;66537;52.370;4.832;2023-11-21T03:43:16;101337.50;;;10.25;100.00
77452;BME280;66537;52.370;4.832;2023-11-21T03:45:41;101347.88;;;10.22;100.00
77452;BME280;66537;52.370;4.832;2023-11-21T03:48:07;101342.66;;;10.25;100.00
77452;BME280;66537;52.370;4.832;2023-11-21T03:50:32;101347.88;;;10.24;100.00
77452;BME280;66537;52.370;4.832;2023-11-21T03:52:58;101354.69;;;10.26;100.00
77452;BME280;66537;52.370;4.832;2023-11-21T03:55:23;101349.97;;;10.02;100.00
77452;BME280;66537;52.370;4.832;2023-11-21T03:57:50;101352.00;;;9.83;100.00
77452;BME280;66537;52.370;4.832;2023-11-21T04:00:16;101353.56;;;9.93;100.00
77452;BME280;66537;52.370;4.832;2023-11-21T04:02:42;101362.97;;;9.97;100.00
77452;BME280;66537;52.370;4.832;2023-11-21T04:05:07;101367.28;;;9.97;100.00
77452;BME280;66537;52.370;4.832;2023-11-21T04:07:33;101365.38;;;10.07;100.00
77452;BME280;66537;52.370;4.832;2023-11-21T04:09:59;101366.25;;;10.07;100.00
77452;BME280;66537;52.370;4.832;2023-11-21T04:12:24;101368.78;;;10.12;100.00
77452;BME280;66537;52.370;4.832;2023-11-21T04:14:50;101366.16;;;10.13;100.00
77452;BME280;66537;52.370;4.832;2023-11-21T04:17:18;101373.03;;;10.16;100.00
77452;BME280;66537;52.370;4.832;2023-11-21T04:19:43;101374.81;;;10.12;100.00
77452;BME280;66537;52.370;4.832;2023-11-21T04:22:08;101377.44;;;10.08;100.00
77452;BME280;66537;52.370;4.832;2023-11-21T04:24:34;101388.56;;;10.14;100.00
77452;BME280;66537;52.370;4.832;2023-11-21T04:26:59;101394.56;;;10.16;100.00
77452;BME280;66537;52.370;4.832;2023-11-21T04:29:24;101390.97;;;10.23;100.00
77452;BME280;66537;52.370;4.832;2023-11-21T04:31:50;101404.69;;;10.27;100.00
77452;BME280;66537;52.370;4.832;2023-11-21T04:34:15;101408.97;;;10.29;100.00
77452;BME280;66537;52.370;4.832;2023-11-21T04:36:40;101411.53;;;10.31;100.00
77452;BME280;66537;52.370;4.832;2023-11-21T04:39:06;101396.06;;;10.26;100.00
77452;BME280;66537;52.370;4.832;2023-11-21T04:41:32;101401.25;;;10.28;100.00
77452;BME280;66537;52.370;4.832;2023-11-21T04:43:57;101411.44;;;10.34;100.00
77452;BME280;66537;52.370;4.832;2023-11-21T04:46:23;101412.50;;;10.25;100.00
77452;BME280;66537;52.370;4.832;2023-11-21T04:48:49;101421.09;;;10.24;100.00
77452;BME280;66537;52.370;4.832;2023-11-21T04:51:14;101423.91;;;10.14;100.00
77452;BME280;66537;52.370;4.832;2023-11-21T04:53:39;101424.63;;;10.20;100.00
77452;BME280;66537;52.370;4.832;2023-11-21T04:56:05;101425.44;;;10.22;100.00
77452;BME280;66537;52.370;4.832;2023-11-21T04:58:31;101430.81;;;10.12;100.00
77452;BME280;66537;52.370;4.832;2023-11-21T05:00:57;101428.97;;;10.20;100.00
77452;BME280;66537;52.370;4.832;2023-11-21T05:03:22;101435.91;;;10.18;100.00
77452;BME280;66537;52.370;4.832;2023-11-21T05:05:49;101440.03;;;10.28;100.00
77452;BME280;66537;52.370;4.832;2023-11-21T05:08:14;101439.06;;;10.32;100.00
77452;BME280;66537;52.370;4.832;2023-11-21T05:10:39;101447.03;;;10.21;100.00
77452;BME280;66537;52.370;4.832;2023-11-21T05:13:05;101444.31;;;10.29;100.00
77452;BME280;66537;52.370;4.832;2023-11-21T05:15:35;101446.75;;;10.36;100.00
77452;BME280;66537;52.370;4.832;2023-11-21T05:18:00;101442.72;;;10.22;100.00
77452;BME280;66537;52.370;4.832;2023-11-21T05:20:25;101452.09;;;10.27;100.00
77452;BME280;66537;52.370;4.832;2023-11-21T05:22:51;101458.66;;;10.46;100.00
77452;BME280;66537;52.370;4.832;2023-11-21T05:25:17;101465.78;;;10.32;100.00
77452;BME280;66537;52.370;4.832;2023-11-21T05:27:44;101462.28;;;10.36;100.00
77452;BME280;66537;52.370;4.832;2023-11-21T05:30:10;101463.31;;;10.28;100.00
77452;BME280;66537;52.370;4.832;2023-11-21T05:32:37;101469.31;;;10.28;100.00
77452;BME280;66537;52.370;4.832;2023-11-21T05:35:03;101472.59;;;10.39;100.00
77452;BME280;66537;52.370;4.832;2023-11-21T05:37:28;101485.44;;;10.42;100.00
77452;BME280;66537;52.370;4.832;2023-11-21T05:39:54;101482.09;;;10.36;100.00
77452;BME280;66537;52.370;4.832;2023-11-21T05:42:22;101478.09;;;10.20;100.00
77452;BME280;66537;52.370;4.832;2023-11-21T05:44:48;101485.66;;;10.30;100.00
77452;BME280;66537;52.370;4.832;2023-11-21T05:47:14;101489.16;;;10.28;100.00
77452;BME280;66537;52.370;4.832;2023-11-21T05:49:39;101490.88;;;10.27;100.00
77452;BME280;66537;52.370;4.832;2023-11-21T05:52:05;101495.97;;;10.32;100.00
77452;BME280;66537;52.370;4.832;2023-11-21T05:54:31;101496.00;;;10.30;100.00
77452;BME280;66537;52.370;4.832;2023-11-21T05:56:56;101505.34;;;10.39;100.00
77452;BME280;66537;52.370;4.832;2023-11-21T05:59:22;101511.53;;;10.29;100.00
77452;BME280;66537;52.370;4.832;2023-11-21T06:01:47;101508.81;;;10.36;100.00
77452;BME280;66537;52.370;4.832;2023-11-21T06:04:13;101521.69;;;10.41;100.00
77452;BME280;66537;52.370;4.832;2023-11-21T06:06:38;101520.03;;;10.37;100.00
77452;BME280;66537;52.370;4.832;2023-11-21T06:09:04;101520.94;;;10.34;100.00
77452;BME280;66537;52.370;4.832;2023-11-21T06:11:31;101530.41;;;10.34;100.00
77452;BME280;66537;52.370;4.832;2023-11-21T06:13:57;101522.78;;;10.26;100.00
77452;BME280;66537;52.370;4.832;2023-11-21T06:16:23;101530.50;;;10.29;100.00
77452;BME280;66537;52.370;4.832;2023-11-21T06:18:48;101529.59;;;10.32;100.00
77452;BME280;66537;52.370;4.832;2023-11-21T06:21:14;101537.41;;;10.29;100.00
77452;BME280;66537;52.370;4.832;2023-11-21T06:23:41;101534.69;;;10.36;100.00
77452;BME280;66537;52.370;4.832;2023-11-21T06:26:07;101532.22;;;10.29;100.00
77452;BME280;66537;52.370;4.832;2023-11-21T06:28:34;101547.91;;;10.20;100.00
77452;BME280;66537;52.370;4.832;2023-11-21T06:30:59;101540.97;;;10.20;100.00
77452;BME280;66537;52.370;4.832;2023-11-21T06:33:33;101549.72;;;10.13;100.00
77452;BME280;66537;52.370;4.832;2023-11-21T06:35:58;101553.19;;;10.14;100.00
77452;BME280;66537;52.370;4.832;2023-11-21T06:38:24;101560.78;;;10.23;100.00
77452;BME280;66537;52.370;4.832;2023-11-21T06:40:49;101565.19;;;10.18;100.00
77452;BME280;66537;52.370;4.832;2023-11-21T06:43:14;101561.81;;;10.11;100.00
77452;BME280;66537;52.370;4.832;2023-11-21T06:45:40;101560.13;;;10.10;100.00
77452;BME280;66537;52.370;4.832;2023-11-21T06:48:06;101570.47;;;10.07;100.00
77452;BME280;66537;52.370;4.832;2023-11-21T06:50:31;101575.63;;;10.10;100.00
77452;BME280;66537;52.370;4.832;2023-11-21T06:52:56;101583.34;;;10.09;100.00
77452;BME280;66537;52.370;4.832;2023-11-21T06:55:22;101575.53;;;10.15;100.00
77452;BME280;66537;52.370;4.832;2023-11-21T06:57:47;101590.22;;;10.13;100.00
77452;BME280;66537;52.370;4.832;2023-11-21T07:00:15;101591.00;;;10.19;100.00
77452;BME280;66537;52.370;4.832;2023-11-21T07:02:40;101596.25;;;10.13;100.00
77452;BME280;66537;52.370;4.832;2023-11-21T07:05:06;101590.88;;;10.27;100.00
77452;BME280;66537;52.370;4.832;2023-11-21T07:07:31;101595.25;;;10.23;100.00
77452;BME280;66537;52.370;4.832;2023-11-21T07:09:59;101601.47;;;10.12;100.00
77452;BME280;66537;52.370;4.832;2023-11-21T07:12:28;101609.06;;;10.21;100.00
77452;BME280;66537;52.370;4.832;2023-11-21T07:14:54;101611.63;;;10.22;100.00
77452;BME280;66537;52.370;4.832;2023-11-21T07:17:19;101608.97;;;10.30;100.00
77452;BME280;66537;52.370;4.832;2023-11-21T07:19:44;101625.28;;;10.33;100.00
77452;BME280;66537;52.370;4.832;2023-11-21T07:22:10;101618.47;;;10.26;100.00
77452;BME280;66537;52.370;4.832;2023-11-21T07:24:36;101632.22;;;10.28;100.00
77452;BME280;66537;52.370;4.832;2023-11-21T07:27:02;101637.56;;;10.18;100.00
77452;BME280;66537;52.370;4.832;2023-11-21T07:29:29;101636.66;;;10.20;100.00
77452;BME280;66537;52.370;4.832;2023-11-21T07:31:55;101649.63;;;10.17;100.00
77452;BME280;66537;52.370;4.832;2023-11-21T07:34:20;101656.47;;;10.21;100.00
77452;BME280;66537;52.370;4.832;2023-11-21T07:36:48;101658.19;;;10.21;100.00
77452;BME280;66537;52.370;4.832;2023-11-21T07:39:14;101658.25;;;10.18;100.00
77452;BME280;66537;52.370;4.832;2023-11-21T07:41:41;101668.56;;;10.19;100.00
77452;BME280;66537;52.370;4.832;2023-11-21T07:44:10;101661.66;;;10.21;100.00
77452;BME280;66537;52.370;4.832;2023-11-21T07:46:36;101672.56;;;10.41;100.00
77452;BME280;66537;52.370;4.832;2023-11-21T07:49:01;101672.66;;;10.34;100.00
77452;BME280;66537;52.370;4.832;2023-11-21T07:51:26;101683.13;;;10.26;100.00
77452;BME280;66537;52.370;4.832;2023-11-21T07:53:52;101676.94;;;10.36;100.00
77452;BME280;66537;52.370;4.832;2023-11-21T07:56:17;101693.44;;;10.29;100.00
77452;BME280;66537;52.370;4.832;2023-11-21T07:58:43;101683.09;;;10.29;100.00
77452;BME280;66537;52.370;4.832;2023-11-21T08:01:09;101680.69;;;10.16;100.00
77452;BME280;66537;52.370;4.832;2023-11-21T08:03:35;101687.63;;;10.14;100.00
77452;BME280;66537;52.370;4.832;2023-11-21T08:06:00;101694.47;;;10.18;100.00
77452;BME280;66537;52.370;4.832;2023-11-21T08:08:25;101703.06;;;10.20;100.00
77452;BME280;66537;52.370;4.832;2023-11-21T08:10:51;101713.31;;;10.26;100.00
77452;BME280;66537;52.370;4.832;2023-11-21T08:13:25;101715.06;;;10.24;100.00
77452;BME280;66537;52.370;4.832;2023-11-21T08:15:53;101722.00;;;10.19;100.00
77452;BME280;66537;52.370;4.832;2023-11-21T08:18:19;101731.50;;;10.18;100.00
77452;BME280;66537;52.370;4.832;2023-11-21T08:20:44;101734.03;;;10.23;100.00
77452;BME280;66537;52.370;4.832;2023-11-21T08:23:13;101721.03;;;10.29;100.00
77452;BME280;66537;52.370;4.832;2023-11-21T08:25:41;101727.09;;;10.25;100.00
77452;BME280;66537;52.370;4.832;2023-11-21T08:28:07;101739.19;;;10.26;100.00
77452;BME280;66537;52.370;4.832;2023-11-21T08:30:32;101750.28;;;10.32;100.00
77452;BME280;66537;52.370;4.832;2023-11-21T08:32:58;101744.31;;;10.29;100.00
77452;BME280;66537;52.370;4.832;2023-11-21T08:35:24;101747.72;;;10.31;100.00
77452;BME280;66537;52.370;4.832;2023-11-21T08:37:52;101751.19;;;10.30;100.00
77452;BME280;66537;52.370;4.832;2023-11-21T08:40:19;101753.13;;;10.14;100.00
77452;BME280;66537;52.370;4.832;2023-11-21T08:42:44;101758.19;;;10.20;100.00
77452;BME280;66537;52.370;4.832;2023-11-21T08:45:11;101762.44;;;10.24;100.00
77452;BME280;66537;52.370;4.832;2023-11-21T08:47:38;101758.97;;;10.30;100.00
77452;BME280;66537;52.370;4.832;2023-11-21T08:50:04;101774.38;;;10.37;100.00
77452;BME280;66537;52.370;4.832;2023-11-21T08:52:31;101771.78;;;10.36;100.00
77452;BME280;66537;52.370;4.832;2023-11-21T08:54:56;101769.34;;;10.25;100.00
77452;BME280;66537;52.370;4.832;2023-11-21T08:57:23;101775.34;;;10.29;100.00
77452;BME280;66537;52.370;4.832;2023-11-21T08:59:48;101783.03;;;10.33;100.00
77452;BME280;66537;52.370;4.832;2023-11-21T09:02:13;101780.50;;;10.29;100.00
77452;BME280;66537;52.370;4.832;2023-11-21T09:04:39;101786.50;;;10.31;100.00
77452;BME280;66537;52.370;4.832;2023-11-21T09:07:04;101796.88;;;10.29;100.00
77452;BME280;66537;52.370;4.832;2023-11-21T09:09:30;101789.22;;;10.22;100.00
77452;BME280;66537;52.370;4.832;2023-11-21T09:11:56;101796.06;;;10.26;100.00
77452;BME280;66537;52.370;4.832;2023-11-21T09:14:21;101808.06;;;10.31;100.00
77452;BME280;66537;52.370;4.832;2023-11-21T09:16:46;101809.66;;;10.40;100.00
77452;BME280;66537;52.370;4.832;2023-11-21T09:19:12;101815.53;;;10.54;100.00
77452;BME280;66537;52.370;4.832;2023-11-21T09:21:39;101825.09;;;10.49;100.00
77452;BME280;66537;52.370;4.832;2023-11-21T09:24:05;101826.75;;;10.54;100.00
77452;BME280;66537;52.370;4.832;2023-11-21T09:26:30;101833.75;;;10.46;100.00
77452;BME280;66537;52.370;4.832;2023-11-21T09:28:55;101832.84;;;10.49;100.00
77452;BME280;66537;52.370;4.832;2023-11-21T09:31:22;101836.28;;;10.51;100.00
77452;BME280;66537;52.370;4.832;2023-11-21T09:33:49;101847.63;;;10.41;100.00
77452;BME280;66537;52.370;4.832;2023-11-21T09:36:16;101853.66;;;10.41;100.00
77452;BME280;66537;52.370;4.832;2023-11-21T09:38:42;101862.25;;;10.42;100.00
77452;BME280;66537;52.370;4.832;2023-11-21T09:41:16;101868.50;;;10.23;100.00
77452;BME280;66537;52.370;4.832;2023-11-21T09:43:46;101876.25;;;10.24;100.00
77452;BME280;66537;52.370;4.832;2023-11-21T09:46:13;101874.50;;;10.26;100.00
77452;BME280;66537;52.370;4.832;2023-11-21T09:48:45;101873.78;;;10.14;100.00
77452;BME280;66537;52.370;4.832;2023-11-21T09:51:12;101882.56;;;9.91;100.00
77452;BME280;66537;52.370;4.832;2023-11-21T09:53:38;101886.75;;;10.06;100.00
77452;BME280;66537;52.370;4.832;2023-11-21T09:56:05;101897.94;;;10.10;100.00
77452;BME280;66537;52.370;4.832;2023-11-21T09:58:31;101901.34;;;10.09;100.00
77452;BME280;66537;52.370;4.832;2023-11-21T10:00:59;101911.63;;;10.21;100.00
77452;BME280;66537;52.370;4.832;2023-11-21T10:03:28;101915.94;;;10.19;100.00
77452;BME280;66537;52.370;4.832;2023-11-21T10:05:53;101916.72;;;10.27;100.00
77452;BME280;66537;52.370;4.832;2023-11-21T10:08:22;101922.00;;;10.19;100.00
77452;BME280;66537;52.370;4.832;2023-11-21T10:10:51;101927.25;;;10.10;100.00
77452;BME280;66537;52.370;4.832;2023-11-21T10:13:18;101938.38;;;10.20;100.00
77452;BME280;66537;52.370;4.832;2023-11-21T10:15:50;101932.28;;;10.25;100.00
77452;BME280;66537;52.370;4.832;2023-11-21T10:18:16;101936.69;;;10.16;100.00
77452;BME280;66537;52.370;4.832;2023-11-21T10:20:42;101943.53;;;10.21;100.00
77452;BME280;66537;52.370;4.832;2023-11-21T10:23:08;101940.06;;;10.24;100.00
77452;BME280;66537;52.370;4.832;2023-11-21T10:25:36;101935.72;;;10.27;100.00
77452;BME280;66537;52.370;4.832;2023-11-21T10:28:02;101949.41;;;10.37;100.00
77452;BME280;66537;52.370;4.832;2023-11-21T10:30:38;101952.88;;;10.33;100.00
77452;BME280;66537;52.370;4.832;2023-11-21T10:33:07;101957.22;;;10.31;100.00
77452;BME280;66537;52.370;4.832;2023-11-21T10:35:46;101958.88;;;10.36;100.00
77452;BME280;66537;52.370;4.832;2023-11-21T10:38:14;101970.13;;;10.35;100.00
77452;BME280;66537;52.370;4.832;2023-11-21T10:40:43;101958.94;;;10.33;100.00
77452;BME280;66537;52.370;4.832;2023-11-21T10:43:09;101968.28;;;10.45;100.00
77452;BME280;66537;52.370;4.832;2023-11-21T10:45:38;101965.69;;;10.46;100.00
77452;BME280;66537;52.370;4.832;2023-11-21T10:48:17;101974.31;;;10.45;100.00
77452;BME280;66537;52.370;4.832;2023-11-21T10:50:45;101974.28;;;10.48;100.00
77452;BME280;66537;52.370;4.832;2023-11-21T10:53:10;101976.16;;;10.34;100.00
77452;BME280;66537;52.370;4.832;2023-11-21T10:55:37;101980.53;;;10.26;100.00
77452;BME280;66537;52.370;4.832;2023-11-21T10:58:03;101987.31;;;10.38;100.00
77452;BME280;66537;52.370;4.832;2023-11-21T11:00:30;101985.66;;;10.32;100.00
77452;BME280;66537;52.370;4.832;2023-11-21T11:02:57;101984.88;;;10.23;100.00
77452;BME280;66537;52.370;4.832;2023-11-21T11:05:25;101988.28;;;10.26;100.00
77452;BME280;66537;52.370;4.832;2023-11-21T11:07:58;101999.59;;;10.16;100.00
77452;BME280;66537;52.370;4.832;2023-11-21T11:10:27;101989.13;;;10.30;100.00
77452;BME280;66537;52.370;4.832;2023-11-21T11:12:55;102000.38;;;10.27;100.00
77452;BME280;66537;52.370;4.832;2023-11-21T11:15:21;101991.56;;;10.46;100.00
77452;BME280;66537;52.370;4.832;2023-11-21T11:17:46;101996.66;;;10.54;100.00
77452;BME280;66537;52.370;4.832;2023-11-21T11:20:14;101998.38;;;10.55;100.00
77452;BME280;66537;52.370;4.832;2023-11-21T11:28:42;101999.25;;;10.52;100.00
77452;BME280;66537;52.370;4.832;2023-11-21T11:36:38;102005.34;;;10.47;100.00
77452;BME280;66537;52.370;4.832;2023-11-21T11:39:27;102013.06;;;10.51;100.00
77452;BME280;66537;52.370;4.832;2023-11-21T11:41:52;102018.16;;;10.59;100.00
77452;BME280;66537;52.370;4.832;2023-11-21T11:47:18;102010.41;;;10.60;100.00
77452;BME280;66537;52.370;4.832;2023-11-21T11:52:48;102007.81;;;10.57;100.00
77452;BME280;66537;52.370;4.832;2023-11-21T11:55:17;102025.06;;;10.58;100.00
77452;BME280;66537;52.370;4.832;2023-11-21T11:57:45;102019.75;;;10.70;100.00
77452;BME280;66537;52.370;4.832;2023-11-21T12:00:13;102028.38;;;10.74;100.00
77452;BME280;66537;52.370;4.832;2023-11-21T12:02:42;102024.09;;;10.67;100.00
77452;BME280;66537;52.370;4.832;2023-11-21T12:05:16;102023.06;;;10.84;100.00
77452;BME280;66537;52.370;4.832;2023-11-21T12:07:54;102024.72;;;10.90;100.00
77452;BME280;66537;52.370;4.832;2023-11-21T12:10:23;102035.03;;;10.95;100.00
77452;BME280;66537;52.370;4.832;2023-11-21T12:12:55;102045.44;;;10.90;100.00
77452;BME280;66537;52.370;4.832;2023-11-21T12:15:20;102050.91;;;10.61;100.00
77452;BME280;66537;52.370;4.832;2023-11-21T12:17:47;102045.72;;;10.63;100.00
77452;BME280;66537;52.370;4.832;2023-11-21T12:20:15;102059.63;;;10.53;100.00
77452;BME280;66537;52.370;4.832;2023-11-21T12:22:46;102056.09;;;10.60;100.00
77452;BME280;66537;52.370;4.832;2023-11-21T12:25:16;102062.28;;;10.47;100.00
77452;BME280;66537;52.370;4.832;2023-11-21T12:27:44;102061.38;;;10.51;100.00
77452;BME280;66537;52.370;4.832;2023-11-21T12:30:11;102067.38;;;10.54;100.00
77452;BME280;66537;52.370;4.832;2023-11-21T12:32:43;102071.81;;;10.39;100.00
77452;BME280;66537;52.370;4.832;2023-11-21T12:35:09;102073.66;;;10.28;100.00
77452;BME280;66537;52.370;4.832;2023-11-21T12:37:36;102074.47;;;10.28;100.00
77452;BME280;66537;52.370;4.832;2023-11-21T12:40:03;102073.59;;;10.31;100.00
77452;BME280;66537;52.370;4.832;2023-11-21T12:42:29;102092.59;;;10.27;100.00
77452;BME280;66537;52.370;4.832;2023-11-21T12:45:22;102085.75;;;10.18;100.00
77452;BME280;66537;52.370;4.832;2023-11-21T12:47:55;102090.88;;;10.29;100.00
77452;BME280;66537;52.370;4.832;2023-11-21T12:50:22;102099.50;;;10.29;100.00
77452;BME280;66537;52.370;4.832;2023-11-21T12:52:52;102093.41;;;10.35;100.00
77452;BME280;66537;52.370;4.832;2023-11-21T12:55:20;102099.53;;;10.23;100.00